CheckWX is a tool to help pilots better visualize weather data.  It is not intended as a substitute for an official pre-flight weather briefing.

11:05:40 UTC

RKPK METAR
Gimhae International Airport
Busan, South Korea
Current

35 mins ago

RKPK 201031Z 17008KT CAVOK 14/10 Q1012
Observed
Apr-20 @ 10:31 UTC
Wind
  • 170° at 8 KTS
Visibility
10,000+ meters
Flight Rules
VFR
Cloud Levels
  • Clear skies
Temperature
14°C / 57°F
Dewpoint
10°C / 50°F
Humidity
77%
Altimeter
29.88" Hg
Pressure
1011.92 hPa
Previous

1 hour ago

RKPK 201000Z 17009KT CAVOK 15/10 Q1012
Observed
Apr-20 @ 10:00 UTC
Wind
  • 170° at 9 KTS
Visibility
10,000+ meters
Flight Rules
VFR
Cloud Levels
  • Clear skies
Temperature
15°C / 59°F
Dewpoint
10°C / 50°F
Humidity
72%
Altimeter
29.88" Hg
Pressure
1011.92 hPa
Previous

2 hours ago

RKPK 200900Z 20013KT CAVOK 17/09 Q1011
Observed
Apr-20 @ 09:00 UTC
Wind
  • 200° at 13 KTS
Visibility
10,000+ meters
Flight Rules
VFR
Cloud Levels
  • Clear skies
Temperature
17°C / 63°F
Dewpoint
C / 48°F
Humidity
59%
Altimeter
29.85" Hg
Pressure
1010.92 hPa